KSNH Weather Reports


Display with metric or nautical units.
time (UTC)temp
F
wind
direction
speed
MPH
gust
MPH
rain 1hr
in
rain 24hr
in
rain mn
in
humidity
%
barometer
mb
20190625102432 66 0 0.0 0.0 0.00 0.00 0.00 9
20190625100439 66 0 0.0 0.0 0.00 0.00 0.00 9
20190625094431 66 0 0.0 0.0 0.00 0.00 0.00 10
20190625092433 66 0 0.0 0.0 0.00 0.00 0.00 10
20190625090431 66 0 0.0 0.0 0.00 0.00 0.00 10
20190625084434 66 0 0.0 0.0 0.00 0.00 0.00 10
20190625082434 66 0 0.0 0.0 0.00 0.00 0.00 10
20190625080441 66 0 0.0 0.0 0.00 0.00 0.00 10
20190625074443 68 160 3.0 0.0 0.00 0.00 0.00 10
20190625072439 66 0 0.0 0.0 0.00 0.00 0.00 10
20190625070433 68 0 0.0 0.0 0.00 0.00 0.00 9
20190625064435 68 0 0.0 0.0 0.00 0.00 0.00 9
20190625062439 68 0 0.0 0.0 0.00 0.00 0.00 10
20190625060434 68 160 3.0 0.0 0.00 0.00 0.00 10
20190625054437 68 140 3.0 0.0 0.00 0.00 0.00 10
20190625052430 68 0 0.0 0.0 0.00 0.00 0.00 10
20190625050429 68 0 0.0 0.0 0.00 0.00 0.00 10
20190625044435 70 150 3.0 0.0 0.00 0.00 0.00 9
20190625042438 70 0 0.0 0.0 0.00 0.00 0.00 9
20190625040438 70 0 0.0 0.0 0.00 0.00 0.00 10
20190625034430 70 0 0.0 0.0 0.00 0.00 0.00 10
20190625032429 72 130 3.0 0.0 0.00 0.00 0.00 9
20190625030431 72 0 0.0 0.0 0.00 0.00 0.00 9
20190625024433 72 0 0.0 0.0 0.00 0.00 0.00 10
20190625022437 73 0 0.0 0.0 0.00 0.00 0.00 9
20190625020435 73 0 0.0 0.0 0.00 0.00 0.00 9
20190625014431 79 210 5.0 0.0 0.00 0.00 0.00 7
20190625012438 79 240 3.0 0.0 0.00 0.00 0.00 7
20190625010432 81 240 6.0 0.0 0.00 0.00 0.00 6
20190625004432 81 240 6.0 0.0 0.00 0.00 0.00 6
20190625002433 81 240 6.0 0.0 0.00 0.00 0.00 6
20190625000432 82 260 7.0 0.0 0.00 0.00 0.00 6
20190624234432 82 250 7.0 0.0 0.00 0.00 0.00 6
20190624232435 82 230 9.0 0.0 0.00 0.00 0.00 6
20190624230430 82 250 8.0 0.0 0.00 0.00 0.00 5
20190624224437 84 260 8.0 15.0 0.00 0.00 0.00 5
20190624222431 84 240 9.0 16.0 0.00 0.00 0.00 5
20190624220438 82 250 12.0 0.0 0.00 0.00 0.00 6
20190624214443 84 250 10.0 0.0 0.00 0.00 0.00 5
20190624212441 84 250 8.0 18.0 0.00 0.00 0.00 5
20190624210437 84 240 9.0 0.0 0.00 0.00 0.00 5
20190624204439 84 240 9.0 0.0 0.00 0.00 0.00 5
20190624202433 84 260 12.0 17.0 0.00 0.00 0.00 5
20190624200432 82 240 8.0 16.0 0.00 0.00 0.00 6
20190624194433 82 240 8.0 16.0 0.00 0.00 0.00 6
20190624192431 82 240 12.0 0.0 0.00 0.00 0.00 6
20190624190438 82 250 8.0 15.0 0.00 0.00 0.00 6
20190624184434 81 250 9.0 18.0 0.00 0.00 0.00 7
20190624182436 81 230 12.0 17.0 0.00 0.00 0.00 7
20190624180433 79 240 10.0 0.0 0.00 0.00 0.00 7
20190624174434 79 240 10.0 0.0 0.00 0.00 0.00 7
20190624172435 77 300 7.0 16.0 0.00 0.00 0.00 7
20190624170435 77 290 10.0 18.0 0.00 0.00 0.00 7
20190624164433 77 270 10.0 18.0 0.00 0.00 0.00 7
20190624160432 79 250 9.0 18.0 0.00 0.00 0.00 7
20190624154431 79 250 13.0 22.0 0.00 0.00 0.00 7
20190624152433 77 240 10.0 16.0 0.00 0.00 0.00 8
20190624150429 77 240 10.0 16.0 0.00 0.00 0.00 8
20190624144434 75 250 12.0 20.0 0.00 0.00 0.00 8
20190624142433 77 200 12.0 20.0 0.00 0.00 0.00 8
20190624140434 75 210 12.0 0.0 0.00 0.00 0.00 9
20190624134431 75 190 13.0 18.0 0.00 0.00 0.00 9
20190624132432 73 190 15.0 0.0 0.00 0.00 0.00 10
20190624130432 73 190 15.0 0.0 0.00 0.00 0.00 10
20190624124432 72 180 10.0 0.0 0.00 0.00 0.00 10
20190624122504 70 160 6.0 13.0 0.00 0.00 0.00 10
20190624120435 70 120 6.0 0.0 0.00 0.00 0.00 10
20190624114435 70 130 6.0 0.0 0.00 0.00 0.00 10
20190624112435 70 130 6.0 0.0 0.00 0.00 0.00 10
20190624110435 70 130 5.0 0.0 0.00 0.00 0.00 10
20190624104432 70 130 6.0 0.0 0.00 0.00 0.00 10